This is the latest recevied weather packets stored in our database for station/object WK7G. If no packets are shown the sender has not sent any weather packets the latest 10 day(s).
| Time | Temp. | Humidity | Pressure | Rain* | Wind** | Luminosity | Snow |
|---|---|---|---|---|---|---|---|
| 1777716164 | -1.11° C | 73% | 1015.3 hPa | 0 mm | - | 0 W/m² | - |
| 1777715861 | -0.56° C | 73% | 1015.3 hPa | 0 mm | - | 0 W/m² | - |
| 1777715559 | 0° C | 69% | 1015.2 hPa | 0 mm | - | 0 W/m² | - |
| 1777715256 | -0.56° C | 69% | 1015.1 hPa | 0 mm | - | 0 W/m² | - |
| 1777714954 | 0° C | 71% | 1014.9 hPa | 0 mm | - | 0 W/m² | - |
| 1777714652 | 0° C | 70% | 1015.1 hPa | 0 mm | - | 0 W/m² | - |
| 1777714349 | 0° C | 69% | 1015.2 hPa | 0 mm | - | 0 W/m² | - |
| 1777714047 | 0.56° C | 67% | 1015.3 hPa | 0 mm | - | 0 W/m² | - |
| 1777713745 | 0.56° C | 68% | 1014.7 hPa | 0 mm | - | 0 W/m² | - |
| 1777713441 | 0° C | 69% | 1015.1 hPa | 0 mm | - | 0 W/m² | - |
| 1777713138 | 0° C | 69% | 1014.9 hPa | 0 mm | - | 0 W/m² | - |
| 1777712835 | 0.56° C | 68% | 1014.7 hPa | 0 mm | - | 0 W/m² | - |
| 1777712532 | 0.56° C | 67% | 1014.9 hPa | 0 mm | - | 0 W/m² | - |
| 1777712229 | 0.56° C | 66% | 1014.9 hPa | 0 mm | - | 0 W/m² | - |
| 1777711925 | 0° C | 69% | 1015.1 hPa | 0 mm | - | 0 W/m² | - |
| 1777711623 | 1.11° C | 66% | 1015.1 hPa | 0 mm | - | 0 W/m² | - |
| 1777711322 | 1.67° C | 63% | 1015.3 hPa | 0 mm | - | 0 W/m² | - |
| 1777711020 | 1.11° C | 63% | 1014.9 hPa | 0 mm | - | 0 W/m² | - |
| 1777710717 | 1.11° C | 63% | 1014.9 hPa | 0 mm | - | 0 W/m² | - |
| 1777710414 | 0.56° C | 66% | 1015.1 hPa | 0 mm | - | 0 W/m² | - |
| 1777710110 | 0° C | 70% | 1014.8 hPa | 0 mm | - | 0 W/m² | - |
| 1777709808 | 0.56° C | 69% | 1015.3 hPa | 0 mm | - | 0 W/m² | - |
| 1777709505 | 1.67° C | 65% | 1015.5 hPa | 0 mm | - | 0 W/m² | - |
| 1777709203 | 1.67° C | 64% | 1015.3 hPa | 0 mm | - | 0 W/m² | - |
| 1777708900 | 1.11° C | 66% | 1015.3 hPa | 0 mm | - | 0 W/m² | - |
* Rain latest hour (hover to see other rain measurements)
** Current wind speed in m/s (hover to see current wind gust speed)